createdAt,value
2022-09-10T00:01:30.439Z,0.00
2022-09-10T00:03:59.377Z,0.00
2022-09-10T00:06:28.158Z,0.00
2022-09-10T00:08:58.120Z,0.00
2022-09-10T00:11:30.695Z,0.00
2022-09-10T00:14:03.772Z,0.00
2022-09-10T00:16:32.669Z,0.60
2022-09-10T00:19:01.535Z,0.00
2022-09-10T00:21:30.237Z,0.20
2022-09-10T00:23:58.398Z,0.00
2022-09-10T00:26:28.817Z,0.00
2022-09-10T00:28:59.153Z,0.00
2022-09-10T00:31:27.935Z,0.00
2022-09-10T00:33:55.471Z,0.00
2022-09-10T00:36:29.227Z,0.60
2022-09-10T00:39:01.323Z,0.00
2022-09-10T00:41:30.198Z,0.20
2022-09-10T00:44:06.899Z,0.00
2022-09-10T00:46:51.533Z,0.00
2022-09-10T00:49:40.453Z,0.00
2022-09-10T00:52:09.175Z,0.00
2022-09-10T00:54:39.183Z,0.00
2022-09-10T00:57:13.877Z,0.00
2022-09-10T00:59:46.949Z,0.00
2022-09-10T01:02:15.171Z,0.00
2022-09-10T01:04:43.393Z,0.20
2022-09-10T01:07:14.798Z,0.00
2022-09-10T01:09:43.508Z,0.00
2022-09-10T01:12:41.841Z,0.00
2022-09-10T01:15:28.055Z,0.00
2022-09-10T01:18:08.780Z,0.60
2022-09-10T01:21:05.200Z,0.00
2022-09-10T01:24:03.398Z,0.00
2022-09-10T01:26:55.712Z,0.00
2022-09-10T01:29:50.226Z,0.00
2022-09-10T01:32:36.308Z,0.00
2022-09-10T01:35:36.752Z,0.00
2022-09-10T01:38:12.743Z,0.00
2022-09-10T01:40:40.665Z,0.00
2022-09-10T01:43:12.008Z,0.00
2022-09-10T01:46:39.611Z,0.00
2022-09-10T01:49:19.011Z,0.00
2022-09-10T01:51:54.477Z,0.00
2022-09-10T01:54:46.125Z,0.00
2022-09-10T01:57:55.604Z,0.00
2022-09-10T02:00:33.595Z,0.00
2022-09-10T02:03:18.998Z,0.00
2022-09-10T02:05:54.049Z,0.60
2022-09-10T02:08:37.974Z,0.00
2022-09-10T02:11:12.094Z,0.00
2022-09-10T02:13:43.008Z,0.80
2022-09-10T02:16:31.975Z,0.00
2022-09-10T02:19:02.283Z,0.00
2022-09-10T02:21:32.363Z,0.00
2022-09-10T02:24:06.276Z,0.00
2022-09-10T02:26:38.351Z,0.80
2022-09-10T02:29:08.839Z,0.20
2022-09-10T02:31:38.726Z,0.00
2022-09-10T02:34:06.921Z,1.00
2022-09-10T02:36:36.082Z,0.00
2022-09-10T02:39:05.236Z,0.00
2022-09-10T02:41:34.489Z,0.00
2022-09-10T02:44:04.527Z,0.00
2022-09-10T02:46:32.312Z,0.00
2022-09-10T02:49:00.002Z,0.40
2022-09-10T02:51:30.680Z,0.00
2022-09-10T02:53:59.409Z,0.40
2022-09-10T02:56:27.159Z,0.00
2022-09-10T02:58:54.750Z,0.00
2022-09-10T03:01:25.348Z,0.00
2022-09-10T03:04:05.323Z,0.00
2022-09-10T03:06:33.034Z,0.00
2022-09-10T03:09:00.461Z,0.00
2022-09-10T03:11:28.339Z,0.00
2022-09-10T03:13:58.618Z,0.00
2022-09-10T03:16:27.054Z,0.60
2022-09-10T03:18:56.116Z,0.00
2022-09-10T03:21:27.654Z,0.00
2022-09-10T03:23:58.044Z,0.00
2022-09-10T03:26:29.822Z,0.00
2022-09-10T03:28:57.889Z,0.00
2022-09-10T03:31:31.392Z,0.00
2022-09-10T03:33:59.922Z,0.00
2022-09-10T03:36:36.858Z,0.00
2022-09-10T03:39:07.010Z,0.00
2022-09-10T03:41:36.022Z,0.00
2022-09-10T03:44:03.658Z,0.00
2022-09-10T03:46:31.464Z,0.00
2022-09-10T03:49:02.670Z,0.00
2022-09-10T03:51:34.501Z,0.00
2022-09-10T03:54:03.071Z,0.00
2022-09-10T03:56:32.812Z,0.60
2022-09-10T03:59:00.839Z,0.00
2022-09-10T04:01:29.258Z,0.00
2022-09-10T04:03:57.303Z,0.80
2022-09-10T04:06:27.083Z,0.00
2022-09-10T04:08:55.901Z,0.00
2022-09-10T04:11:27.906Z,0.00
2022-09-10T04:13:57.231Z,0.20
2022-09-10T04:16:25.923Z,0.00
2022-09-10T04:18:54.572Z,0.00
2022-09-10T04:21:23.431Z,0.00
2022-09-10T04:23:55.306Z,0.00
2022-09-10T04:26:23.523Z,1.00
2022-09-10T04:28:51.065Z,0.00
2022-09-10T04:31:19.603Z,0.00
2022-09-10T04:33:47.632Z,1.00
2022-09-10T04:36:18.181Z,14.60
2022-09-10T04:38:45.676Z,96.20
2022-09-10T04:41:16.080Z,94.50
2022-09-10T04:43:43.926Z,37.60
2022-09-10T04:46:11.179Z,33.20
2022-09-10T04:48:41.711Z,16.20
2022-09-10T04:51:17.485Z,56.00
2022-09-10T04:53:47.832Z,88.60
2022-09-10T04:56:15.961Z,154.75
2022-09-10T04:58:47.351Z,36.40
2022-09-10T05:01:15.522Z,44.60
2022-09-10T05:03:44.882Z,13.60
2022-09-10T05:06:12.979Z,45.00
2022-09-10T05:08:40.966Z,18.40
2022-09-10T05:11:08.667Z,21.80
2022-09-10T05:13:36.181Z,20.80
2022-09-10T05:16:03.619Z,34.60
2022-09-10T05:18:33.575Z,27.00
2022-09-10T05:21:01.053Z,20.00
2022-09-10T05:23:29.475Z,54.40
2022-09-10T05:25:59.830Z,45.80
2022-09-10T05:28:28.008Z,14.75
2022-09-10T05:30:55.683Z,8.50
2022-09-10T05:33:25.383Z,8.75
2022-09-10T05:35:53.049Z,19.00
2022-09-10T05:38:21.942Z,10.75
2022-09-10T05:40:50.614Z,16.00
2022-09-10T05:43:18.188Z,3.75
2022-09-10T05:45:46.511Z,6.75
2022-09-10T05:48:15.225Z,7.25
2022-09-10T05:50:45.849Z,1.75
2022-09-10T05:53:14.487Z,1.00
2022-09-10T05:55:42.082Z,2.00
2022-09-10T05:58:10.890Z,1.00
2022-09-10T06:00:40.672Z,3.00
2022-09-10T06:03:09.298Z,0.00
2022-09-10T06:05:53.171Z,1.25
2022-09-10T06:08:25.329Z,1.40
2022-09-10T06:11:00.577Z,1.00
2022-09-10T06:13:32.737Z,0.00
2022-09-10T06:16:00.723Z,1.00
2022-09-10T06:18:30.240Z,1.00
2022-09-10T06:21:07.079Z,0.00
2022-09-10T06:23:36.469Z,0.80
2022-09-10T06:26:07.031Z,2.00
2022-09-10T06:28:36.799Z,1.20
2022-09-10T06:31:06.750Z,0.00
2022-09-10T06:33:36.292Z,0.40
2022-09-10T06:36:05.037Z,3.40
2022-09-10T06:38:37.160Z,3.40
2022-09-10T06:41:09.340Z,1.40
2022-09-10T06:43:42.600Z,0.80
2022-09-10T06:46:56.872Z,1.20
2022-09-10T06:49:11.522Z,1.80
2022-09-10T06:51:42.832Z,1.60
2022-09-10T06:54:11.407Z,0.20
2022-09-10T06:56:39.568Z,1.00
2022-09-10T06:59:08.780Z,1.00
2022-09-10T07:01:42.763Z,0.80
2022-09-10T07:04:10.913Z,1.00
2022-09-10T07:06:38.691Z,2.00
2022-09-10T07:09:10.437Z,0.40
2022-09-10T07:11:46.596Z,2.00
2022-09-10T07:14:15.273Z,0.20
2022-09-10T07:16:44.505Z,0.00
2022-09-10T07:19:17.798Z,1.00
2022-09-10T07:21:46.543Z,1.00
2022-09-10T07:24:16.137Z,0.00
2022-09-10T07:27:04.755Z,1.00
2022-09-10T07:29:35.483Z,1.20
2022-09-10T07:32:04.653Z,1.20
2022-09-10T07:34:32.858Z,0.00
2022-09-10T07:37:02.301Z,0.00
2022-09-10T07:39:31.699Z,1.00
2022-09-10T07:42:00.700Z,1.00
2022-09-10T07:44:31.098Z,0.00
2022-09-10T07:47:03.891Z,1.40
2022-09-10T07:49:33.270Z,1.40
2022-09-10T07:52:01.175Z,1.00
2022-09-10T07:54:35.574Z,1.00
2022-09-10T07:57:05.495Z,0.20
2022-09-10T07:59:34.967Z,0.20
2022-09-10T08:02:06.665Z,0.00
2022-09-10T08:04:37.790Z,0.00
2022-09-10T08:07:09.591Z,0.00
2022-09-10T08:09:39.352Z,0.20
2022-09-10T08:12:09.940Z,0.60
2022-09-10T08:14:40.098Z,0.00
2022-09-10T08:17:08.701Z,0.80
2022-09-10T08:19:40.970Z,1.00
2022-09-10T08:22:13.328Z,1.00
2022-09-10T08:24:48.235Z,1.00
2022-09-10T08:27:17.515Z,1.20
2022-09-10T08:29:46.674Z,1.00
2022-09-10T08:32:14.375Z,1.00
2022-09-10T08:34:42.490Z,1.00
2022-09-10T08:37:12.797Z,2.00
2022-09-10T08:39:41.241Z,0.00
2022-09-10T08:42:29.837Z,1.80
2022-09-10T08:45:06.864Z,0.00
2022-09-10T08:47:40.221Z,1.00
2022-09-10T08:51:00.063Z,0.00
2022-09-10T08:54:05.658Z,1.00
2022-09-10T08:56:35.157Z,1.00
2022-09-10T08:59:17.152Z,0.40
2022-09-10T09:01:48.015Z,0.60
2022-09-10T09:04:55.074Z,0.60
2022-09-10T09:07:23.611Z,0.00
2022-09-10T09:09:57.155Z,0.60
2022-09-10T09:12:39.321Z,0.00
2022-09-10T09:15:18.543Z,0.80
2022-09-10T09:18:24.682Z,1.00
2022-09-10T09:21:12.556Z,0.20
2022-09-10T09:24:12.689Z,1.00
2022-09-10T09:26:50.296Z,0.00
2022-09-10T09:30:00.289Z,1.00
2022-09-10T09:32:34.216Z,1.00
2022-09-10T09:35:21.831Z,0.00
2022-09-10T09:37:56.132Z,0.40
2022-09-10T09:40:34.093Z,1.00
2022-09-10T09:43:41.106Z,0.40
2022-09-10T09:46:18.015Z,1.00
2022-09-10T09:48:49.163Z,1.00
2022-09-10T09:51:21.809Z,0.60
2022-09-10T09:54:06.136Z,2.40
2022-09-10T09:56:50.362Z,5.40
2022-09-10T09:59:35.216Z,2.00
2022-09-10T10:02:30.607Z,0.00
2022-09-10T10:05:07.257Z,1.00
2022-09-10T10:07:39.338Z,2.60
2022-09-10T10:10:08.034Z,2.00
2022-09-10T10:12:42.673Z,5.25
2022-09-10T10:15:37.586Z,0.40
2022-09-10T10:18:24.373Z,0.20
2022-09-10T10:21:14.095Z,0.20
2022-09-10T10:23:41.877Z,2.00
2022-09-10T10:26:21.622Z,1.00
2022-09-10T10:28:57.097Z,0.20
2022-09-10T10:31:24.558Z,0.00
2022-09-10T10:34:07.099Z,1.40
2022-09-10T10:36:56.581Z,2.00
2022-09-10T10:39:45.918Z,0.60
2022-09-10T10:42:32.282Z,1.60
2022-09-10T10:45:17.463Z,0.00
2022-09-10T10:47:48.991Z,0.20
2022-09-10T10:50:16.511Z,0.00
2022-09-10T10:53:09.794Z,0.60
2022-09-10T10:56:00.383Z,0.20
2022-09-10T10:58:56.161Z,1.00
2022-09-10T11:01:27.042Z,0.20
2022-09-10T11:04:20.419Z,1.20
2022-09-10T11:06:55.420Z,0.00
2022-09-10T11:09:31.532Z,0.20
2022-09-10T11:12:16.069Z,0.00
2022-09-10T11:14:59.736Z,1.00
2022-09-10T11:17:40.436Z,0.00
2022-09-10T11:20:34.777Z,0.00
2022-09-10T11:23:33.374Z,0.00
2022-09-10T11:26:07.872Z,0.00
2022-09-10T11:28:44.060Z,0.00
2022-09-10T11:31:37.196Z,0.00
2022-09-10T11:34:09.722Z,0.00
2022-09-10T11:37:27.554Z,0.50
2022-09-10T11:40:00.003Z,0.00
2022-09-10T11:42:40.774Z,0.00
2022-09-10T11:45:30.244Z,0.50
2022-09-10T11:48:08.049Z,1.00
2022-09-10T11:51:11.447Z,0.25
2022-09-10T11:53:39.122Z,1.00
2022-09-10T11:56:40.994Z,0.00
2022-09-10T11:59:30.163Z,0.00
2022-09-10T12:02:14.789Z,0.00
2022-09-10T12:05:16.408Z,0.00
2022-09-10T12:08:29.936Z,0.00
2022-09-10T12:11:09.560Z,0.25
2022-09-10T12:13:39.640Z,0.00
2022-09-10T12:16:26.086Z,0.00
2022-09-10T12:18:56.063Z,0.75
2022-09-10T12:21:44.308Z,0.00
2022-09-10T12:24:35.091Z,0.00
2022-09-10T12:27:05.515Z,0.50
2022-09-10T12:29:41.079Z,1.00
2022-09-10T12:32:20.658Z,1.00
2022-09-10T12:35:08.731Z,0.00
2022-09-10T12:37:36.633Z,0.00
2022-09-10T12:40:26.233Z,0.00
2022-09-10T12:43:00.821Z,0.25
2022-09-10T12:46:05.957Z,0.00
2022-09-10T12:48:45.441Z,0.00
2022-09-10T12:51:37.780Z,0.25
2022-09-10T12:54:05.309Z,0.00
2022-09-10T12:56:43.495Z,0.00
2022-09-10T12:59:23.344Z,0.00
2022-09-10T13:01:52.335Z,1.00
2022-09-10T13:04:37.932Z,0.00
2022-09-10T13:07:34.322Z,0.75
2022-09-10T13:10:15.609Z,0.00
2022-09-10T13:12:47.412Z,0.00
2022-09-10T13:15:22.151Z,0.25
2022-09-10T13:17:51.564Z,0.00
2022-09-10T13:20:22.331Z,2.00
2022-09-10T13:23:18.521Z,0.00
2022-09-10T13:25:47.911Z,0.00
2022-09-10T13:28:30.840Z,0.00
2022-09-10T13:31:17.618Z,0.00
2022-09-10T13:33:54.274Z,1.00
2022-09-10T13:36:39.996Z,0.00
2022-09-10T13:39:20.731Z,0.75
2022-09-10T13:42:26.114Z,0.00
2022-09-10T13:45:38.999Z,1.00
2022-09-10T13:48:27.976Z,1.00
2022-09-10T13:51:40.941Z,0.75
2022-09-10T13:54:34.721Z,2.75
2022-09-10T13:57:42.827Z,1.00
2022-09-10T14:00:13.835Z,0.00
2022-09-10T14:02:50.946Z,0.50
2022-09-10T14:05:34.249Z,0.00
2022-09-10T14:08:19.661Z,0.50
2022-09-10T14:11:11.338Z,0.25
2022-09-10T14:14:04.649Z,2.00
2022-09-10T14:16:43.767Z,0.00
2022-09-10T14:19:37.899Z,0.00
2022-09-10T14:22:09.827Z,0.75
2022-09-10T14:24:40.489Z,0.00
2022-09-10T14:27:17.611Z,0.75
2022-09-10T14:29:46.883Z,1.00
2022-09-10T14:32:35.055Z,0.75
2022-09-10T14:35:43.210Z,1.00
2022-09-10T14:38:30.655Z,0.50
2022-09-10T14:41:26.487Z,0.50
2022-09-10T14:44:20.536Z,0.25
2022-09-10T14:46:51.833Z,1.00
2022-09-10T14:49:28.699Z,1.00
2022-09-10T14:51:58.814Z,1.00
2022-09-10T14:54:27.308Z,0.75
2022-09-10T14:56:58.298Z,0.25
2022-09-10T14:59:32.121Z,0.50
2022-09-10T15:02:01.158Z,1.00
2022-09-10T15:04:30.351Z,1.00
2022-09-10T15:07:03.002Z,0.00
2022-09-10T15:09:31.898Z,3.50
2022-09-10T15:12:07.061Z,1.00
2022-09-10T15:14:34.792Z,0.50
2022-09-10T15:17:03.003Z,0.00
2022-09-10T15:19:30.325Z,2.25
2022-09-10T15:21:58.660Z,0.50
2022-09-10T15:24:26.231Z,0.25
2022-09-10T15:26:53.521Z,0.50
2022-09-10T15:29:20.938Z,0.00
2022-09-10T15:31:48.211Z,0.50
2022-09-10T15:34:15.846Z,0.00
2022-09-10T15:36:43.296Z,0.00
2022-09-10T15:39:12.852Z,1.25
2022-09-10T15:41:44.943Z,2.00
2022-09-10T15:44:12.963Z,0.75
2022-09-10T15:46:45.459Z,0.75
2022-09-10T15:49:13.232Z,2.75
2022-09-10T15:51:41.614Z,0.00
2022-09-10T15:54:11.384Z,4.00
2022-09-10T15:56:39.691Z,4.75
2022-09-10T15:59:08.936Z,4.25
2022-09-10T16:01:38.573Z,3.00
2022-09-10T16:04:06.556Z,3.00
2022-09-10T16:06:36.974Z,2.00
2022-09-10T16:09:07.858Z,1.75
2022-09-10T16:11:37.283Z,2.00
2022-09-10T16:14:09.881Z,1.00
2022-09-10T16:16:37.481Z,1.50
2022-09-10T16:19:05.947Z,1.25
2022-09-10T16:21:37.778Z,3.00
2022-09-10T16:24:06.313Z,4.25
2022-09-10T16:26:40.011Z,3.00
2022-09-10T16:29:16.150Z,4.50
2022-09-10T16:31:47.092Z,8.50
2022-09-10T16:34:18.720Z,9.50
2022-09-10T16:36:49.138Z,6.33
2022-09-10T16:39:17.707Z,5.50
2022-09-10T16:41:47.447Z,5.25
2022-09-10T16:44:16.629Z,2.00
2022-09-10T16:46:44.844Z,3.75
2022-09-10T16:49:14.209Z,4.75
2022-09-10T16:51:43.212Z,5.50
2022-09-10T16:54:12.302Z,4.00
2022-09-10T16:56:45.472Z,7.75
2022-09-10T16:59:18.985Z,2.50
2022-09-10T17:01:48.771Z,4.75
2022-09-10T17:04:24.872Z,3.25
2022-09-10T17:06:53.658Z,4.75
2022-09-10T17:09:21.243Z,3.00
2022-09-10T17:11:48.617Z,2.00
2022-09-10T17:14:16.024Z,22.40
2022-09-10T17:16:43.975Z,2.00
2022-09-10T17:19:12.818Z,6.50
2022-09-10T17:21:43.345Z,3.00
2022-09-10T17:24:13.173Z,2.00
2022-09-10T17:26:41.815Z,3.00
2022-09-10T17:29:20.681Z,2.00
2022-09-10T17:31:48.538Z,1.50
2022-09-10T17:34:16.923Z,2.00
2022-09-10T17:36:46.636Z,4.00
2022-09-10T17:39:16.196Z,3.80
2022-09-10T17:41:44.383Z,4.40
2022-09-10T17:44:12.638Z,4.60
2022-09-10T17:46:40.663Z,3.00
2022-09-10T17:49:07.950Z,3.40
2022-09-10T17:51:35.796Z,3.40
2022-09-10T17:54:03.560Z,3.00
2022-09-10T17:56:31.689Z,3.40
2022-09-10T17:59:01.903Z,3.40
2022-09-10T18:01:33.975Z,4.60
2022-09-10T18:04:01.813Z,3.20
2022-09-10T18:06:29.454Z,3.60
2022-09-10T18:09:03.785Z,3.00
2022-09-10T18:11:33.923Z,4.80
2022-09-10T18:14:01.779Z,4.40
2022-09-10T18:16:32.417Z,3.80
2022-09-10T18:19:12.967Z,5.00
2022-09-10T18:21:41.858Z,5.60
2022-09-10T18:24:17.911Z,4.00
2022-09-10T18:26:48.439Z,1.00
2022-09-10T18:29:27.948Z,4.00
2022-09-10T18:31:58.127Z,3.00
2022-09-10T18:34:28.052Z,6.00
2022-09-10T18:36:57.804Z,4.00
2022-09-10T18:39:27.528Z,2.60
2022-09-10T18:41:55.580Z,3.00
2022-09-10T18:44:26.040Z,3.00
2022-09-10T18:46:54.692Z,2.00
2022-09-10T18:49:24.586Z,3.00
2022-09-10T18:51:53.211Z,3.00
2022-09-10T18:54:21.962Z,3.00
2022-09-10T18:56:50.693Z,3.80
2022-09-10T18:59:23.501Z,4.80
2022-09-10T19:01:54.566Z,4.00
2022-09-10T19:04:25.636Z,5.40
2022-09-10T19:06:53.486Z,4.80
2022-09-10T19:09:26.557Z,3.80
2022-09-10T19:11:55.385Z,4.80
2022-09-10T19:14:26.619Z,4.20
2022-09-10T19:16:55.499Z,5.60
2022-09-10T19:19:28.367Z,5.60
2022-09-10T19:22:01.452Z,6.00
2022-09-10T19:24:50.981Z,5.80
2022-09-10T19:27:17.281Z,5.00
2022-09-10T19:29:45.217Z,3.80
2022-09-10T19:32:14.786Z,2.20
2022-09-10T19:34:42.946Z,3.00
2022-09-10T19:37:10.530Z,2.40
2022-09-10T19:39:38.062Z,2.20
2022-09-10T19:42:06.989Z,4.00
2022-09-10T19:44:34.569Z,3.40
2022-09-10T19:47:04.516Z,5.00
2022-09-10T19:49:31.972Z,4.20
2022-09-10T19:51:59.475Z,4.00
2022-09-10T19:54:28.526Z,5.20
2022-09-10T19:56:56.820Z,7.60
2022-09-10T19:59:24.298Z,3.20
2022-09-10T20:01:51.872Z,4.00
2022-09-10T20:04:19.561Z,3.00
2022-09-10T20:06:47.857Z,3.00
2022-09-10T20:09:15.218Z,3.20
2022-09-10T20:11:42.780Z,3.00
2022-09-10T20:14:14.324Z,3.00
2022-09-10T20:16:45.673Z,3.20
2022-09-10T20:19:18.511Z,2.40
2022-09-10T20:21:47.920Z,2.60
2022-09-10T20:24:16.414Z,0.00
2022-09-10T20:26:46.707Z,1.60
2022-09-10T20:29:19.754Z,1.40
2022-09-10T20:31:48.929Z,3.00
2022-09-10T20:34:19.671Z,2.60
2022-09-10T20:36:48.523Z,1.00
2022-09-10T20:39:18.253Z,0.60
2022-09-10T20:41:46.914Z,2.00
2022-09-10T20:44:17.166Z,2.00
2022-09-10T20:46:45.549Z,2.20
2022-09-10T20:49:16.090Z,2.00
2022-09-10T20:51:44.320Z,2.00
2022-09-10T20:54:15.202Z,1.00
2022-09-10T20:56:43.257Z,2.00
2022-09-10T20:59:14.922Z,0.00
2022-09-10T21:01:44.840Z,2.00
2022-09-10T21:04:13.675Z,3.00
2022-09-10T21:06:41.247Z,2.00
2022-09-10T21:09:09.034Z,2.80
2022-09-10T21:11:37.487Z,1.80
2022-09-10T21:14:07.136Z,2.00
2022-09-10T21:16:37.512Z,2.00
2022-09-10T21:19:14.056Z,2.00
2022-09-10T21:21:42.855Z,2.00
2022-09-10T21:24:16.399Z,1.40
2022-09-10T21:26:44.381Z,2.00
2022-09-10T21:29:17.556Z,1.40
2022-09-10T21:31:45.616Z,2.40
2022-09-10T21:34:14.092Z,2.00
2022-09-10T21:36:43.946Z,3.00
2022-09-10T21:39:17.566Z,2.40
2022-09-10T21:41:49.903Z,0.80
2022-09-10T21:44:20.280Z,2.00
2022-09-10T21:46:48.850Z,1.40
2022-09-10T21:49:16.669Z,2.20
2022-09-10T21:51:44.349Z,1.00
2022-09-10T21:54:18.880Z,2.40
2022-09-10T21:56:49.350Z,3.00
2022-09-10T21:59:16.941Z,1.40
2022-09-10T22:01:46.523Z,2.60
2022-09-10T22:04:18.940Z,1.00
2022-09-10T22:06:48.795Z,1.00
2022-09-10T22:09:17.112Z,2.00
2022-09-10T22:11:52.105Z,2.80
2022-09-10T22:14:22.145Z,1.00
2022-09-10T22:16:50.537Z,1.00
2022-09-10T22:19:22.583Z,1.00
2022-09-10T22:21:50.438Z,1.00
2022-09-10T22:24:19.245Z,0.60
2022-09-10T22:26:47.733Z,2.00
2022-09-10T22:29:20.561Z,2.00
2022-09-10T22:31:48.763Z,1.60
2022-09-10T22:34:18.042Z,1.00
2022-09-10T22:36:47.418Z,1.00
2022-09-10T22:39:17.744Z,1.00
2022-09-10T22:41:46.174Z,1.00
2022-09-10T22:44:13.720Z,1.00
2022-09-10T22:46:42.035Z,1.00
2022-09-10T22:49:10.253Z,1.00
2022-09-10T22:51:41.210Z,1.00
2022-09-10T22:54:10.944Z,0.00
2022-09-10T22:56:39.031Z,1.00
2022-09-10T22:59:07.503Z,1.00
2022-09-10T23:01:37.528Z,1.00
2022-09-10T23:04:06.544Z,1.00
2022-09-10T23:06:36.970Z,2.00
2022-09-10T23:09:12.414Z,1.00
2022-09-10T23:11:41.384Z,1.00
2022-09-10T23:14:16.263Z,1.00
2022-09-10T23:16:48.486Z,1.00
2022-09-10T23:19:22.210Z,0.00
2022-09-10T23:21:52.452Z,1.00
2022-09-10T23:24:22.762Z,0.00
2022-09-10T23:26:51.355Z,0.00
2022-09-10T23:29:18.975Z,1.00
2022-09-10T23:31:47.993Z,1.60
2022-09-10T23:34:18.458Z,1.00
2022-09-10T23:36:47.833Z,0.00
2022-09-10T23:39:21.449Z,1.00
2022-09-10T23:41:50.922Z,1.00
2022-09-10T23:44:18.764Z,2.00
2022-09-10T23:46:46.834Z,1.00
2022-09-10T23:49:14.779Z,0.80
2022-09-10T23:51:42.525Z,1.20
2022-09-10T23:54:10.958Z,1.00
2022-09-10T23:56:39.414Z,1.40
2022-09-10T23:59:07.004Z,1.80
